Terminal Aerodrome Forecast
Issued by NWS Cleveland, OH

Home | Current Version | Previous Version | Text Only | Print | Product List | Glossary On
Versions: 1 2 3 4 5 6 7 8 9 10 11 12 13 14 15 16
000
FTUS41 KCLE 250500
TAFYNG
TAF
KYNG 250533Z 2506/2606 VRB04KT P6SM SKC
     FM250900 VRB03KT 4SM BR SKC
     FM251300 23006KT P6SM FEW040
     FM252300 22005KT P6SM SCT040 SCT250
     FM260300 22006KT P6SM SCT120 BKN250
     FM260500 22006KT P6SM BKN150 OVC250=

USA.gov is the U.S. government's official web portal to all federal, state and local government web resources and services.